Terminal Aerodrome Forecast
Issued by NWS

Home | Current Version | Previous Version | Text Only | Print | Product List | Glossary On
Versions: 1 2 3 4 5 6 7 8 9 10 11 12 13 14 15 16 17 18 19 20 21 22 23 24
000
FTUS44 KTSA 261801 AAA
TAFBVO
TAF AMD
KBVO 261801Z 2618/2718 18013G22KT P6SM FEW022 SCT030 BKN045
     FM270000 16010KT P6SM OVC040
     FM270300 16009KT P6SM OVC250 PROB30 2703/2709 2SM +TSRA
      BKN030CB
     FM270900 17007KT P6SM VCTS BKN015CB PROB30 2709/2715 2SM +TSRA
      BKN015CB
     FM271500 17009KT P6SM OVC007=

USA.gov is the U.S. government's official web portal to all federal, state and local government web resources and services.